sensor_id;sensor_type;location;lat;lon;timestamp;pressure;altitude;pressure_sealevel;temperature;humidity
54978;BME280;40873;47.522;19.106;2023-07-16T00:00:15;100191.16;;;22.89;100.00
54978;BME280;40873;47.522;19.106;2023-07-16T00:03:04;100192.84;;;22.82;100.00
54978;BME280;40873;47.522;19.106;2023-07-16T00:05:31;100193.34;;;22.86;100.00
54978;BME280;40873;47.522;19.106;2023-07-16T00:07:58;100189.00;;;22.77;100.00
54978;BME280;40873;47.522;19.106;2023-07-16T00:10:25;100191.69;;;22.77;100.00
54978;BME280;40873;47.522;19.106;2023-07-16T00:12:53;100194.38;;;22.77;100.00
54978;BME280;40873;47.522;19.106;2023-07-16T00:15:20;100196.56;;;22.73;100.00
54978;BME280;40873;47.522;19.106;2023-07-16T00:17:47;100196.25;;;22.68;100.00
54978;BME280;40873;47.522;19.106;2023-07-16T00:20:14;100191.03;;;22.66;100.00
54978;BME280;40873;47.522;19.106;2023-07-16T00:22:41;100199.09;;;22.66;100.00
54978;BME280;40873;47.522;19.106;2023-07-16T00:25:08;100192.94;;;22.58;100.00
54978;BME280;40873;47.522;19.106;2023-07-16T00:27:35;100192.09;;;22.57;100.00
54978;BME280;40873;47.522;19.106;2023-07-16T00:30:03;100191.91;;;22.59;100.00
54978;BME280;40873;47.522;19.106;2023-07-16T00:32:30;100192.97;;;22.50;100.00
54978;BME280;40873;47.522;19.106;2023-07-16T00:34:57;100200.38;;;22.48;100.00
54978;BME280;40873;47.522;19.106;2023-07-16T00:37:24;100190.78;;;22.45;100.00
54978;BME280;40873;47.522;19.106;2023-07-16T00:39:51;100188.78;;;22.47;100.00
54978;BME280;40873;47.522;19.106;2023-07-16T00:42:18;100190.28;;;22.50;100.00
54978;BME280;40873;47.522;19.106;2023-07-16T00:44:45;100191.63;;;22.54;100.00
54978;BME280;40873;47.522;19.106;2023-07-16T00:47:12;100193.09;;;22.56;100.00
54978;BME280;40873;47.522;19.106;2023-07-16T00:49:39;100190.59;;;22.55;100.00
54978;BME280;40873;47.522;19.106;2023-07-16T00:52:12;100188.25;;;22.52;100.00
54978;BME280;40873;47.522;19.106;2023-07-16T00:54:41;100185.75;;;22.50;100.00
54978;BME280;40873;47.522;19.106;2023-07-16T00:57:08;100184.41;;;22.46;100.00
54978;BME280;40873;47.522;19.106;2023-07-16T00:59:35;100184.41;;;22.46;100.00
54978;BME280;40873;47.522;19.106;2023-07-16T01:02:02;100177.88;;;22.40;100.00
54978;BME280;40873;47.522;19.106;2023-07-16T01:04:29;100180.06;;;22.37;100.00
54978;BME280;40873;47.522;19.106;2023-07-16T01:07:01;100176.22;;;22.31;100.00
54978;BME280;40873;47.522;19.106;2023-07-16T01:09:30;100176.75;;;22.27;100.00
54978;BME280;40873;47.522;19.106;2023-07-16T01:12:00;100175.91;;;22.26;100.00
54978;BME280;40873;47.522;19.106;2023-07-16T01:14:27;100174.56;;;22.22;100.00
54978;BME280;40873;47.522;19.106;2023-07-16T01:16:55;100169.69;;;22.17;100.00
54978;BME280;40873;47.522;19.106;2023-07-16T01:19:26;100167.72;;;22.11;100.00
54978;BME280;40873;47.522;19.106;2023-07-16T01:22:18;100162.00;;;22.06;100.00
54978;BME280;40873;47.522;19.106;2023-07-16T01:28:20;100161.47;;;22.03;100.00
54978;BME280;40873;47.522;19.106;2023-07-16T01:30:51;100177.28;;;21.98;100.00
54978;BME280;40873;47.522;19.106;2023-07-16T01:33:19;100170.56;;;21.94;100.00
54978;BME280;40873;47.522;19.106;2023-07-16T01:35:48;100171.41;;;21.86;100.00
54978;BME280;40873;47.522;19.106;2023-07-16T01:38:17;100175.97;;;21.85;100.00
54978;BME280;40873;47.522;19.106;2023-07-16T01:40:45;100173.94;;;21.79;100.00
54978;BME280;40873;47.522;19.106;2023-07-16T01:43:12;100163.88;;;21.73;100.00
54978;BME280;40873;47.522;19.106;2023-07-16T01:45:39;100161.53;;;21.70;100.00
54978;BME280;40873;47.522;19.106;2023-07-16T01:48:22;100157.34;;;21.68;100.00
54978;BME280;40873;47.522;19.106;2023-07-16T01:50:50;100173.44;;;21.68;100.00
54978;BME280;40873;47.522;19.106;2023-07-16T01:53:18;100171.94;;;21.65;100.00
54978;BME280;40873;47.522;19.106;2023-07-16T01:55:44;100173.63;;;21.66;100.00
54978;BME280;40873;47.522;19.106;2023-07-16T01:58:12;100176.47;;;21.65;100.00
54978;BME280;40873;47.522;19.106;2023-07-16T02:00:39;100167.59;;;21.64;100.00
54978;BME280;40873;47.522;19.106;2023-07-16T02:03:06;100173.78;;;21.65;100.00
54978;BME280;40873;47.522;19.106;2023-07-16T02:05:33;100163.88;;;21.65;100.00
54978;BME280;40873;47.522;19.106;2023-07-16T02:08:00;100177.13;;;21.58;100.00
54978;BME280;40873;47.522;19.106;2023-07-16T02:10:27;100171.25;;;21.55;100.00
54978;BME280;40873;47.522;19.106;2023-07-16T02:12:54;100161.22;;;21.49;100.00
54978;BME280;40873;47.522;19.106;2023-07-16T02:15:21;100171.09;;;21.48;100.00
54978;BME280;40873;47.522;19.106;2023-07-16T02:17:48;100174.94;;;21.46;100.00
54978;BME280;40873;47.522;19.106;2023-07-16T02:20:15;100168.22;;;21.42;100.00
54978;BME280;40873;47.522;19.106;2023-07-16T02:22:43;100168.91;;;21.44;100.00
54978;BME280;40873;47.522;19.106;2023-07-16T02:25:10;100162.84;;;21.42;100.00
54978;BME280;40873;47.522;19.106;2023-07-16T02:27:37;100161.72;;;21.36;100.00
54978;BME280;40873;47.522;19.106;2023-07-16T02:30:04;100159.50;;;21.40;100.00
54978;BME280;40873;47.522;19.106;2023-07-16T02:32:33;100151.47;;;21.40;100.00
54978;BME280;40873;47.522;19.106;2023-07-16T02:35:01;100154.97;;;21.40;100.00
54978;BME280;40873;47.522;19.106;2023-07-16T02:37:30;100157.28;;;21.27;100.00
54978;BME280;40873;47.522;19.106;2023-07-16T02:39:56;100162.66;;;21.19;100.00
54978;BME280;40873;47.522;19.106;2023-07-16T02:42:24;100163.66;;;21.18;100.00
54978;BME280;40873;47.522;19.106;2023-07-16T02:44:51;100167.66;;;21.14;100.00
54978;BME280;40873;47.522;19.106;2023-07-16T02:47:18;100166.16;;;21.11;100.00
54978;BME280;40873;47.522;19.106;2023-07-16T02:49:45;100166.16;;;21.03;100.00
54978;BME280;40873;47.522;19.106;2023-07-16T02:52:12;100168.66;;;21.04;100.00
54978;BME280;40873;47.522;19.106;2023-07-16T02:54:39;100169.00;;;21.01;100.00
54978;BME280;40873;47.522;19.106;2023-07-16T02:57:06;100166.81;;;21.05;100.00
54978;BME280;40873;47.522;19.106;2023-07-16T02:59:33;100171.50;;;21.03;100.00
54978;BME280;40873;47.522;19.106;2023-07-16T03:02:00;100163.09;;;20.98;100.00
54978;BME280;40873;47.522;19.106;2023-07-16T03:04:27;100167.13;;;20.94;100.00
54978;BME280;40873;47.522;19.106;2023-07-16T03:06:54;100159.09;;;20.94;100.00
54978;BME280;40873;47.522;19.106;2023-07-16T03:09:21;100157.38;;;20.93;100.00
54978;BME280;40873;47.522;19.106;2023-07-16T03:11:48;100164.94;;;20.89;100.00
54978;BME280;40873;47.522;19.106;2023-07-16T03:14:15;100171.78;;;20.84;100.00
54978;BME280;40873;47.522;19.106;2023-07-16T03:16:42;100175.13;;;20.77;100.00
54978;BME280;40873;47.522;19.106;2023-07-16T03:19:09;100187.00;;;20.75;100.00
54978;BME280;40873;47.522;19.106;2023-07-16T03:21:36;100177.91;;;20.60;100.00
54978;BME280;40873;47.522;19.106;2023-07-16T03:24:03;100186.63;;;20.62;100.00
54978;BME280;40873;47.522;19.106;2023-07-16T03:26:31;100180.16;;;20.72;100.00
54978;BME280;40873;47.522;19.106;2023-07-16T03:28:57;100179.97;;;20.74;100.00
54978;BME280;40873;47.522;19.106;2023-07-16T03:31:25;100181.66;;;20.75;100.00
54978;BME280;40873;47.522;19.106;2023-07-16T03:33:51;100191.56;;;20.83;100.00
54978;BME280;40873;47.522;19.106;2023-07-16T03:36:19;100190.06;;;20.88;100.00
54978;BME280;40873;47.522;19.106;2023-07-16T03:38:45;100197.13;;;20.89;100.00
54978;BME280;40873;47.522;19.106;2023-07-16T03:41:13;100195.94;;;20.92;100.00
54978;BME280;40873;47.522;19.106;2023-07-16T03:43:40;100197.47;;;20.94;100.00
54978;BME280;40873;47.522;19.106;2023-07-16T03:46:07;100202.34;;;20.99;100.00
54978;BME280;40873;47.522;19.106;2023-07-16T03:48:35;100201.84;;;20.95;100.00
54978;BME280;40873;47.522;19.106;2023-07-16T03:51:02;100198.97;;;20.97;100.00
54978;BME280;40873;47.522;19.106;2023-07-16T03:53:29;100214.59;;;21.01;100.00
54978;BME280;40873;47.522;19.106;2023-07-16T03:55:56;100213.25;;;21.05;100.00
54978;BME280;40873;47.522;19.106;2023-07-16T03:58:23;100214.59;;;21.10;100.00
54978;BME280;40873;47.522;19.106;2023-07-16T04:00:50;100210.75;;;21.12;100.00
54978;BME280;40873;47.522;19.106;2023-07-16T04:03:19;100206.41;;;21.19;100.00
54978;BME280;40873;47.522;19.106;2023-07-16T04:05:46;100209.63;;;21.23;100.00
54978;BME280;40873;47.522;19.106;2023-07-16T04:08:13;100225.09;;;21.29;100.00
54978;BME280;40873;47.522;19.106;2023-07-16T04:10:40;100222.06;;;21.32;100.00
54978;BME280;40873;47.522;19.106;2023-07-16T04:13:07;100213.34;;;21.38;100.00
54978;BME280;40873;47.522;19.106;2023-07-16T04:15:34;100209.19;;;21.44;100.00
54978;BME280;40873;47.522;19.106;2023-07-16T04:18:01;100214.03;;;21.48;100.00
54978;BME280;40873;47.522;19.106;2023-07-16T04:20:28;100215.03;;;21.47;100.00
54978;BME280;40873;47.522;19.106;2023-07-16T04:22:57;100213.88;;;21.58;100.00
54978;BME280;40873;47.522;19.106;2023-07-16T04:25:24;100221.75;;;21.59;100.00
54978;BME280;40873;47.522;19.106;2023-07-16T04:27:51;100220.44;;;21.64;100.00
54978;BME280;40873;47.522;19.106;2023-07-16T04:30:18;100222.78;;;21.67;100.00
54978;BME280;40873;47.522;19.106;2023-07-16T04:32:45;100226.97;;;21.69;100.00
54978;BME280;40873;47.522;19.106;2023-07-16T04:35:13;100220.25;;;21.73;100.00
54978;BME280;40873;47.522;19.106;2023-07-16T04:37:40;100222.09;;;21.81;100.00
54978;BME280;40873;47.522;19.106;2023-07-16T04:40:07;100227.16;;;21.92;100.00
54978;BME280;40873;47.522;19.106;2023-07-16T04:42:35;100220.75;;;22.01;100.00
54978;BME280;40873;47.522;19.106;2023-07-16T04:45:03;100231.00;;;22.06;100.00
54978;BME280;40873;47.522;19.106;2023-07-16T04:47:31;100223.47;;;22.09;100.00
54978;BME280;40873;47.522;19.106;2023-07-16T04:49:58;100230.00;;;22.15;100.00
54978;BME280;40873;47.522;19.106;2023-07-16T04:52:26;100226.97;;;22.18;100.00
54978;BME280;40873;47.522;19.106;2023-07-16T04:54:53;100233.50;;;22.24;100.00
54978;BME280;40873;47.522;19.106;2023-07-16T04:57:20;100233.66;;;22.30;100.00
54978;BME280;40873;47.522;19.106;2023-07-16T04:59:49;100241.88;;;22.37;100.00
54978;BME280;40873;47.522;19.106;2023-07-16T05:02:16;100246.56;;;22.43;100.00
54978;BME280;40873;47.522;19.106;2023-07-16T05:04:43;100246.22;;;22.46;100.00
54978;BME280;40873;47.522;19.106;2023-07-16T05:07:11;100245.22;;;22.55;100.00
54978;BME280;40873;47.522;19.106;2023-07-16T05:09:38;100241.66;;;22.63;100.00
54978;BME280;40873;47.522;19.106;2023-07-16T05:12:05;100242.47;;;22.71;100.00
54978;BME280;40873;47.522;19.106;2023-07-16T05:14:43;100246.78;;;22.81;100.00
54978;BME280;40873;47.522;19.106;2023-07-16T05:17:10;100253.69;;;22.91;100.00
54978;BME280;40873;47.522;19.106;2023-07-16T05:19:37;100256.50;;;22.98;100.00
54978;BME280;40873;47.522;19.106;2023-07-16T05:22:08;100253.78;;;23.06;100.00
54978;BME280;40873;47.522;19.106;2023-07-16T05:24:35;100250.38;;;23.12;100.00
54978;BME280;40873;47.522;19.106;2023-07-16T05:27:02;100250.16;;;23.22;100.00
54978;BME280;40873;47.522;19.106;2023-07-16T05:29:29;100246.94;;;23.27;100.00
54978;BME280;40873;47.522;19.106;2023-07-16T05:31:56;100243.72;;;23.31;100.00
54978;BME280;40873;47.522;19.106;2023-07-16T05:34:23;100243.69;;;23.39;100.00
54978;BME280;40873;47.522;19.106;2023-07-16T05:36:53;100240.63;;;23.42;100.00
54978;BME280;40873;47.522;19.106;2023-07-16T05:39:21;100247.63;;;23.51;100.00
54978;BME280;40873;47.522;19.106;2023-07-16T05:41:48;100240.53;;;23.59;100.00
54978;BME280;40873;47.522;19.106;2023-07-16T05:44:15;100240.94;;;23.70;100.00
54978;BME280;40873;47.522;19.106;2023-07-16T05:46:42;100242.59;;;23.79;100.00
54978;BME280;40873;47.522;19.106;2023-07-16T05:49:09;100254.78;;;23.90;100.00
54978;BME280;40873;47.522;19.106;2023-07-16T05:51:36;100238.91;;;23.95;100.00
54978;BME280;40873;47.522;19.106;2023-07-16T05:54:03;100242.06;;;23.99;100.00
54978;BME280;40873;47.522;19.106;2023-07-16T05:56:30;100237.81;;;24.04;100.00
54978;BME280;40873;47.522;19.106;2023-07-16T05:58:57;100233.19;;;24.13;100.00
54978;BME280;40873;47.522;19.106;2023-07-16T06:01:24;100240.81;;;24.24;100.00
54978;BME280;40873;47.522;19.106;2023-07-16T06:03:51;100245.81;;;24.36;100.00
54978;BME280;40873;47.522;19.106;2023-07-16T06:06:19;100248.03;;;24.47;98.70
54978;BME280;40873;47.522;19.106;2023-07-16T06:08:46;100255.19;;;24.54;98.71
54978;BME280;40873;47.522;19.106;2023-07-16T06:11:13;100254.28;;;24.62;96.81
54978;BME280;40873;47.522;19.106;2023-07-16T06:13:40;100255.22;;;24.69;95.12
54978;BME280;40873;47.522;19.106;2023-07-16T06:16:07;100254.81;;;24.72;94.92
54978;BME280;40873;47.522;19.106;2023-07-16T06:18:34;100255.38;;;24.82;95.81
54978;BME280;40873;47.522;19.106;2023-07-16T06:21:01;100256.97;;;24.92;94.98
54978;BME280;40873;47.522;19.106;2023-07-16T06:23:28;100248.56;;;25.01;95.08
54978;BME280;40873;47.522;19.106;2023-07-16T06:25:56;100258.28;;;25.10;94.74
54978;BME280;40873;47.522;19.106;2023-07-16T06:28:23;100259.84;;;25.20;91.63
54978;BME280;40873;47.522;19.106;2023-07-16T06:30:50;100258.03;;;25.27;90.87
54978;BME280;40873;47.522;19.106;2023-07-16T06:33:20;100256.81;;;25.29;89.09
54978;BME280;40873;47.522;19.106;2023-07-16T06:35:48;100260.63;;;25.35;88.56
54978;BME280;40873;47.522;19.106;2023-07-16T06:38:15;100261.81;;;25.47;89.32
54978;BME280;40873;47.522;19.106;2023-07-16T06:40:49;100258.97;;;25.55;88.86
54978;BME280;40873;47.522;19.106;2023-07-16T06:43:16;100264.44;;;25.62;87.00
54978;BME280;40873;47.522;19.106;2023-07-16T06:45:44;100263.13;;;25.73;86.63
54978;BME280;40873;47.522;19.106;2023-07-16T06:48:11;100255.97;;;25.86;85.91
54978;BME280;40873;47.522;19.106;2023-07-16T06:50:38;100254.09;;;25.87;82.21
54978;BME280;40873;47.522;19.106;2023-07-16T06:53:05;100255.03;;;25.94;84.94
54978;BME280;40873;47.522;19.106;2023-07-16T06:55:32;100245.53;;;26.05;83.92
54978;BME280;40873;47.522;19.106;2023-07-16T06:58:00;100259.78;;;26.20;81.66
54978;BME280;40873;47.522;19.106;2023-07-16T07:00:27;100255.09;;;26.29;82.42
54978;BME280;40873;47.522;19.106;2023-07-16T07:02:54;100252.69;;;26.40;82.63
54978;BME280;40873;47.522;19.106;2023-07-16T07:05:22;100249.25;;;26.53;82.20
54978;BME280;40873;47.522;19.106;2023-07-16T07:07:49;100246.38;;;26.61;75.93
54978;BME280;40873;47.522;19.106;2023-07-16T07:10:16;100243.91;;;26.66;75.24
54978;BME280;40873;47.522;19.106;2023-07-16T07:12:43;100236.06;;;26.78;77.59
54978;BME280;40873;47.522;19.106;2023-07-16T07:15:10;100236.75;;;26.93;79.16
54978;BME280;40873;47.522;19.106;2023-07-16T07:17:37;100230.72;;;26.98;77.83
54978;BME280;40873;47.522;19.106;2023-07-16T07:20:05;100239.06;;;27.03;76.19
54978;BME280;40873;47.522;19.106;2023-07-16T07:22:32;100246.66;;;27.14;75.88
54978;BME280;40873;47.522;19.106;2023-07-16T07:24:59;100242.09;;;27.21;76.38
54978;BME280;40873;47.522;19.106;2023-07-16T07:27:26;100245.25;;;27.31;79.46
54978;BME280;40873;47.522;19.106;2023-07-16T07:29:53;100237.13;;;27.38;78.14
54978;BME280;40873;47.522;19.106;2023-07-16T07:32:22;100241.13;;;27.49;75.96
54978;BME280;40873;47.522;19.106;2023-07-16T07:34:49;100240.94;;;27.64;76.07
54978;BME280;40873;47.522;19.106;2023-07-16T07:37:16;100238.69;;;27.74;76.35
54978;BME280;40873;47.522;19.106;2023-07-16T07:39:44;100238.09;;;27.85;75.54
54978;BME280;40873;47.522;19.106;2023-07-16T07:42:14;100233.50;;;27.92;74.23
54978;BME280;40873;47.522;19.106;2023-07-16T07:44:41;100227.03;;;28.00;72.59
54978;BME280;40873;47.522;19.106;2023-07-16T07:47:08;100227.25;;;28.11;74.33
54978;BME280;40873;47.522;19.106;2023-07-16T07:49:35;100227.84;;;28.20;68.89
54978;BME280;40873;47.522;19.106;2023-07-16T07:52:02;100220.31;;;28.29;68.32
54978;BME280;40873;47.522;19.106;2023-07-16T07:54:31;100221.16;;;28.36;67.05
54978;BME280;40873;47.522;19.106;2023-07-16T07:57:01;100225.53;;;28.50;69.09
54978;BME280;40873;47.522;19.106;2023-07-16T07:59:32;100222.72;;;28.77;64.42
54978;BME280;40873;47.522;19.106;2023-07-16T08:01:59;100220.44;;;28.80;64.40
54978;BME280;40873;47.522;19.106;2023-07-16T08:04:28;100220.41;;;28.87;63.64
54978;BME280;40873;47.522;19.106;2023-07-16T08:06:56;100212.84;;;29.02;63.27
54978;BME280;40873;47.522;19.106;2023-07-16T08:09:23;100214.03;;;29.13;64.69
54978;BME280;40873;47.522;19.106;2023-07-16T08:11:50;100227.78;;;29.25;63.24
54978;BME280;40873;47.522;19.106;2023-07-16T08:14:17;100215.59;;;29.34;63.74
54978;BME280;40873;47.522;19.106;2023-07-16T08:16:44;100207.78;;;29.51;61.80
54978;BME280;40873;47.522;19.106;2023-07-16T08:19:12;100210.47;;;29.57;61.21
54978;BME280;40873;47.522;19.106;2023-07-16T08:21:38;100212.22;;;29.77;61.28
54978;BME280;40873;47.522;19.106;2023-07-16T08:24:06;100221.16;;;29.84;60.56
54978;BME280;40873;47.522;19.106;2023-07-16T08:26:33;100211.88;;;29.91;61.59
54978;BME280;40873;47.522;19.106;2023-07-16T08:29:00;100206.69;;;30.08;59.19
54978;BME280;40873;47.522;19.106;2023-07-16T08:31:28;100208.09;;;30.17;61.63
54978;BME280;40873;47.522;19.106;2023-07-16T08:33:55;100210.16;;;30.22;61.92
54978;BME280;40873;47.522;19.106;2023-07-16T08:36:25;100204.34;;;30.37;57.06
54978;BME280;40873;47.522;19.106;2023-07-16T08:38:52;100210.03;;;30.35;55.60
54978;BME280;40873;47.522;19.106;2023-07-16T08:41:20;100204.34;;;30.37;55.95
54978;BME280;40873;47.522;19.106;2023-07-16T08:43:47;100200.25;;;30.46;58.30
54978;BME280;40873;47.522;19.106;2023-07-16T08:46:15;100213.38;;;30.55;55.59
54978;BME280;40873;47.522;19.106;2023-07-16T08:48:44;100210.94;;;30.66;56.69
54978;BME280;40873;47.522;19.106;2023-07-16T08:51:14;100203.06;;;30.57;56.91
54978;BME280;40873;47.522;19.106;2023-07-16T08:53:41;100189.97;;;30.66;56.66
54978;BME280;40873;47.522;19.106;2023-07-16T08:56:09;100197.94;;;30.86;56.74
54978;BME280;40873;47.522;19.106;2023-07-16T08:58:37;100196.78;;;30.94;57.19
54978;BME280;40873;47.522;19.106;2023-07-16T09:01:05;100200.16;;;31.07;57.69
54978;BME280;40873;47.522;19.106;2023-07-16T09:03:32;100199.41;;;31.19;56.33
54978;BME280;40873;47.522;19.106;2023-07-16T09:05:59;100200.06;;;31.02;56.18
54978;BME280;40873;47.522;19.106;2023-07-16T09:08:27;100208.72;;;31.11;55.94
54978;BME280;40873;47.522;19.106;2023-07-16T09:10:56;100203.97;;;31.25;56.99
54978;BME280;40873;47.522;19.106;2023-07-16T09:13:24;100205.66;;;31.37;57.67
54978;BME280;40873;47.522;19.106;2023-07-16T09:15:55;100205.47;;;31.51;57.04
54978;BME280;40873;47.522;19.106;2023-07-16T09:18:24;100207.84;;;31.71;57.63
54978;BME280;40873;47.522;19.106;2023-07-16T09:20:55;100200.97;;;31.68;58.10
54978;BME280;40873;47.522;19.106;2023-07-16T09:23:25;100195.94;;;31.83;56.83
54978;BME280;40873;47.522;19.106;2023-07-16T09:25:54;100197.59;;;31.96;55.96
54978;BME280;40873;47.522;19.106;2023-07-16T09:28:22;100202.09;;;31.90;54.61
54978;BME280;40873;47.522;19.106;2023-07-16T09:30:50;100194.75;;;31.79;55.10
54978;BME280;40873;47.522;19.106;2023-07-16T09:33:22;100191.22;;;32.14;57.53
54978;BME280;40873;47.522;19.106;2023-07-16T09:35:53;100190.72;;;32.29;54.10
54978;BME280;40873;47.522;19.106;2023-07-16T09:38:20;100203.19;;;32.01;54.19
54978;BME280;40873;47.522;19.106;2023-07-16T09:40:47;100192.13;;;32.31;54.20
54978;BME280;40873;47.522;19.106;2023-07-16T09:43:14;100196.44;;;32.51;53.22
54978;BME280;40873;47.522;19.106;2023-07-16T09:45:42;100195.06;;;32.77;52.73
54978;BME280;40873;47.522;19.106;2023-07-16T09:48:10;100202.28;;;32.83;52.05
54978;BME280;40873;47.522;19.106;2023-07-16T09:50:38;100196.63;;;32.61;52.28
54978;BME280;40873;47.522;19.106;2023-07-16T09:53:10;100193.63;;;32.86;54.85
54978;BME280;40873;47.522;19.106;2023-07-16T09:55:37;100196.84;;;32.71;51.99
54978;BME280;40873;47.522;19.106;2023-07-16T09:58:09;100191.09;;;32.56;52.55
54978;BME280;40873;47.522;19.106;2023-07-16T10:00:39;100198.56;;;32.25;54.17
54978;BME280;40873;47.522;19.106;2023-07-16T10:03:08;100201.75;;;32.57;53.42
54978;BME280;40873;47.522;19.106;2023-07-16T10:05:37;100189.59;;;32.77;51.80
54978;BME280;40873;47.522;19.106;2023-07-16T10:08:04;100201.00;;;32.73;50.24
54978;BME280;40873;47.522;19.106;2023-07-16T10:10:43;100191.91;;;32.56;50.67
54978;BME280;40873;47.522;19.106;2023-07-16T10:13:12;100191.72;;;32.74;51.03
54978;BME280;40873;47.522;19.106;2023-07-16T10:15:50;100187.47;;;32.67;51.19
54978;BME280;40873;47.522;19.106;2023-07-16T10:18:28;100188.09;;;31.99;51.86
54978;BME280;40873;47.522;19.106;2023-07-16T10:21:08;100182.19;;;32.02;52.08
54978;BME280;40873;47.522;19.106;2023-07-16T10:23:37;100180.31;;;32.14;53.08
54978;BME280;40873;47.522;19.106;2023-07-16T10:26:06;100179.34;;;32.43;52.63
54978;BME280;40873;47.522;19.106;2023-07-16T10:28:34;100177.47;;;32.84;53.04
54978;BME280;40873;47.522;19.106;2023-07-16T10:31:01;100171.81;;;33.31;54.77
54978;BME280;40873;47.522;19.106;2023-07-16T10:33:29;100178.81;;;33.56;51.68
54978;BME280;40873;47.522;19.106;2023-07-16T10:35:57;100184.13;;;33.79;48.97
54978;BME280;40873;47.522;19.106;2023-07-16T10:38:26;100184.72;;;33.98;47.92
54978;BME280;40873;47.522;19.106;2023-07-16T10:40:52;100169.78;;;33.89;47.79
54978;BME280;40873;47.522;19.106;2023-07-16T10:43:20;100176.00;;;33.84;47.91
54978;BME280;40873;47.522;19.106;2023-07-16T10:45:47;100183.78;;;33.59;47.88
54978;BME280;40873;47.522;19.106;2023-07-16T10:48:17;100175.09;;;33.62;46.41
54978;BME280;40873;47.522;19.106;2023-07-16T10:50:44;100176.09;;;33.56;46.04
54978;BME280;40873;47.522;19.106;2023-07-16T10:53:11;100174.59;;;33.48;46.92
54978;BME280;40873;47.522;19.106;2023-07-16T10:55:41;100170.19;;;33.64;46.89
54978;BME280;40873;47.522;19.106;2023-07-16T10:58:08;100162.06;;;33.86;45.68
54978;BME280;40873;47.522;19.106;2023-07-16T11:00:39;100154.38;;;33.99;46.28
54978;BME280;40873;47.522;19.106;2023-07-16T11:03:06;100171.78;;;33.60;46.76
54978;BME280;40873;47.522;19.106;2023-07-16T11:05:35;100168.97;;;33.54;48.41
54978;BME280;40873;47.522;19.106;2023-07-16T11:08:02;100166.41;;;33.48;48.03
54978;BME280;40873;47.522;19.106;2023-07-16T11:10:29;100165.44;;;32.97;49.08
54978;BME280;40873;47.522;19.106;2023-07-16T11:12:57;100161.78;;;33.20;47.39
54978;BME280;40873;47.522;19.106;2023-07-16T11:15:32;100168.66;;;33.68;46.13
54978;BME280;40873;47.522;19.106;2023-07-16T11:18:01;100159.94;;;33.88;46.41
54978;BME280;40873;47.522;19.106;2023-07-16T11:20:29;100163.84;;;33.75;44.53
54978;BME280;40873;47.522;19.106;2023-07-16T11:22:59;100167.22;;;33.65;45.53
54978;BME280;40873;47.522;19.106;2023-07-16T11:25:28;100162.44;;;33.27;46.22
54978;BME280;40873;47.522;19.106;2023-07-16T11:27:56;100149.06;;;33.14;47.15
54978;BME280;40873;47.522;19.106;2023-07-16T11:30:23;100151.06;;;33.64;45.34
54978;BME280;40873;47.522;19.106;2023-07-16T11:32:52;100163.41;;;34.00;43.69
54978;BME280;40873;47.522;19.106;2023-07-16T11:35:20;100157.69;;;33.85;44.73
54978;BME280;40873;47.522;19.106;2023-07-16T11:37:47;100153.44;;;34.11;45.46
54978;BME280;40873;47.522;19.106;2023-07-16T11:40:19;100142.28;;;34.56;45.20
54978;BME280;40873;47.522;19.106;2023-07-16T11:42:47;100139.97;;;34.70;40.05
54978;BME280;40873;47.522;19.106;2023-07-16T11:45:21;100141.03;;;34.90;41.67
54978;BME280;40873;47.522;19.106;2023-07-16T11:47:50;100144.00;;;35.38;39.45
54978;BME280;40873;47.522;19.106;2023-07-16T11:50:17;100155.06;;;35.43;38.02
54978;BME280;40873;47.522;19.106;2023-07-16T11:52:52;100140.69;;;35.63;38.47
54978;BME280;40873;47.522;19.106;2023-07-16T11:55:20;100138.88;;;35.47;38.59
54978;BME280;40873;47.522;19.106;2023-07-16T11:57:47;100144.06;;;35.16;37.46
54978;BME280;40873;47.522;19.106;2023-07-16T12:00:14;100148.66;;;34.61;38.48
54978;BME280;40873;47.522;19.106;2023-07-16T12:02:42;100141.56;;;34.87;39.66
54978;BME280;40873;47.522;19.106;2023-07-16T12:05:09;100138.84;;;34.66;37.94
54978;BME280;40873;47.522;19.106;2023-07-16T12:07:40;100149.81;;;34.44;41.27
54978;BME280;40873;47.522;19.106;2023-07-16T12:10:08;100151.25;;;34.29;41.03
54978;BME280;40873;47.522;19.106;2023-07-16T12:12:35;100148.81;;;34.11;39.99
54978;BME280;40873;47.522;19.106;2023-07-16T12:15:07;100145.31;;;33.65;41.14
54978;BME280;40873;47.522;19.106;2023-07-16T12:17:34;100156.63;;;33.69;41.14
54978;BME280;40873;47.522;19.106;2023-07-16T12:20:02;100146.31;;;34.10;40.75
54978;BME280;40873;47.522;19.106;2023-07-16T12:22:31;100141.16;;;34.52;39.79
54978;BME280;40873;47.522;19.106;2023-07-16T12:24:58;100138.25;;;35.07;40.81
54978;BME280;40873;47.522;19.106;2023-07-16T12:27:26;100143.56;;;34.48;41.17
54978;BME280;40873;47.522;19.106;2023-07-16T12:29:53;100134.56;;;34.75;41.92
54978;BME280;40873;47.522;19.106;2023-07-16T12:32:20;100143.41;;;34.82;41.13
54978;BME280;40873;47.522;19.106;2023-07-16T12:34:47;100145.44;;;34.43;41.11
54978;BME280;40873;47.522;19.106;2023-07-16T12:37:14;100138.41;;;34.13;41.24
54978;BME280;40873;47.522;19.106;2023-07-16T12:39:43;100141.84;;;34.03;41.77
54978;BME280;40873;47.522;19.106;2023-07-16T12:42:10;100135.97;;;33.95;40.90